Marmaduke, Arkansas
Current Conditions -  °F | °C
As of 4:35 AM on Monday 26 Jan 2015 (Local Time) from K4M9 Reporting Station
Overcast Overcast  
Wind Chill: -2°   Ceiling: 2100
Heat Index:   Visibility: 10mi
Dew Point:   Wind: 12mph
Humidity: 87%   Direction: 340°NNW
Pressure: 30.07"   Gusts: NA
Location:  36.19°N, 90.38°W
Report Text: K4M9 261035Z AUTO 34010KT 10SM OVC021 02/00 A3007 RMK AO2
Loading
Personal Weather Stations






























Interactive Weather Map New forecast layout! Learn more

10-Day Weather Forecast

Advertisements
Track Severe Weather on mobile